sensor_id;sensor_type;location;lat;lon;timestamp;P1;durP1;ratioP1;P2;durP2;ratioP2
22752;SDS011;11543;43.144;24.684;2022-11-09T00:00:35;36.22;;;23.58;;
22752;SDS011;11543;43.144;24.684;2022-11-09T00:03:01;40.55;;;24.17;;
22752;SDS011;11543;43.144;24.684;2022-11-09T00:05:26;38.65;;;25.90;;
22752;SDS011;11543;43.144;24.684;2022-11-09T00:07:52;39.05;;;25.70;;
22752;SDS011;11543;43.144;24.684;2022-11-09T00:10:17;39.67;;;25.48;;
22752;SDS011;11543;43.144;24.684;2022-11-09T00:12:42;37.22;;;24.65;;
22752;SDS011;11543;43.144;24.684;2022-11-09T00:15:08;47.17;;;31.38;;
22752;SDS011;11543;43.144;24.684;2022-11-09T00:17:34;52.45;;;34.65;;
22752;SDS011;11543;43.144;24.684;2022-11-09T00:19:59;47.90;;;33.03;;
22752;SDS011;11543;43.144;24.684;2022-11-09T00:22:24;49.83;;;32.88;;
22752;SDS011;11543;43.144;24.684;2022-11-09T00:24:50;44.15;;;28.85;;
22752;SDS011;11543;43.144;24.684;2022-11-09T00:27:15;42.15;;;27.30;;
22752;SDS011;11543;43.144;24.684;2022-11-09T00:29:40;41.40;;;27.10;;
22752;SDS011;11543;43.144;24.684;2022-11-09T00:32:06;39.72;;;25.58;;
22752;SDS011;11543;43.144;24.684;2022-11-09T00:34:31;42.47;;;25.98;;
22752;SDS011;11543;43.144;24.684;2022-11-09T00:36:57;37.65;;;23.65;;
22752;SDS011;11543;43.144;24.684;2022-11-09T00:39:22;34.58;;;22.52;;
22752;SDS011;11543;43.144;24.684;2022-11-09T00:41:48;35.47;;;22.27;;
22752;SDS011;11543;43.144;24.684;2022-11-09T00:44:13;36.15;;;23.13;;
22752;SDS011;11543;43.144;24.684;2022-11-09T00:46:38;44.70;;;23.38;;
22752;SDS011;11543;43.144;24.684;2022-11-09T00:49:04;40.88;;;25.08;;
22752;SDS011;11543;43.144;24.684;2022-11-09T00:51:29;38.97;;;23.75;;
22752;SDS011;11543;43.144;24.684;2022-11-09T00:53:55;38.95;;;24.52;;
22752;SDS011;11543;43.144;24.684;2022-11-09T00:56:21;36.83;;;23.45;;
22752;SDS011;11543;43.144;24.684;2022-11-09T00:58:46;35.35;;;23.02;;
22752;SDS011;11543;43.144;24.684;2022-11-09T01:01:13;37.45;;;23.38;;
22752;SDS011;11543;43.144;24.684;2022-11-09T01:03:40;39.13;;;23.23;;
22752;SDS011;11543;43.144;24.684;2022-11-09T01:06:06;33.55;;;22.55;;
22752;SDS011;11543;43.144;24.684;2022-11-09T01:08:33;39.55;;;23.45;;
22752;SDS011;11543;43.144;24.684;2022-11-09T01:11:03;33.60;;;22.20;;
22752;SDS011;11543;43.144;24.684;2022-11-09T01:13:30;35.17;;;23.83;;
22752;SDS011;11543;43.144;24.684;2022-11-09T01:15:56;35.58;;;22.48;;
22752;SDS011;11543;43.144;24.684;2022-11-09T01:18:21;34.15;;;21.90;;
22752;SDS011;11543;43.144;24.684;2022-11-09T01:20:48;35.88;;;22.75;;
22752;SDS011;11543;43.144;24.684;2022-11-09T01:23:14;35.03;;;21.38;;
22752;SDS011;11543;43.144;24.684;2022-11-09T01:25:41;33.67;;;21.38;;
22752;SDS011;11543;43.144;24.684;2022-11-09T01:28:07;32.90;;;20.95;;
22752;SDS011;11543;43.144;24.684;2022-11-09T01:30:34;32.25;;;21.52;;
22752;SDS011;11543;43.144;24.684;2022-11-09T01:33:06;38.45;;;22.30;;
22752;SDS011;11543;43.144;24.684;2022-11-09T01:35:33;34.28;;;22.48;;
22752;SDS011;11543;43.144;24.684;2022-11-09T01:38:00;36.78;;;22.25;;
22752;SDS011;11543;43.144;24.684;2022-11-09T01:40:27;34.95;;;21.98;;
22752;SDS011;11543;43.144;24.684;2022-11-09T01:42:54;35.47;;;22.10;;
22752;SDS011;11543;43.144;24.684;2022-11-09T01:45:21;37.03;;;22.58;;
22752;SDS011;11543;43.144;24.684;2022-11-09T01:47:59;36.97;;;22.42;;
22752;SDS011;11543;43.144;24.684;2022-11-09T01:50:33;36.55;;;22.25;;
22752;SDS011;11543;43.144;24.684;2022-11-09T01:53:15;39.03;;;22.98;;
22752;SDS011;11543;43.144;24.684;2022-11-09T01:55:43;37.72;;;23.33;;
22752;SDS011;11543;43.144;24.684;2022-11-09T01:58:17;38.63;;;24.45;;
22752;SDS011;11543;43.144;24.684;2022-11-09T02:00:47;38.95;;;23.15;;
22752;SDS011;11543;43.144;24.684;2022-11-09T02:03:19;39.60;;;23.77;;
22752;SDS011;11543;43.144;24.684;2022-11-09T02:05:49;39.90;;;24.70;;
22752;SDS011;11543;43.144;24.684;2022-11-09T02:08:16;37.35;;;23.08;;
22752;SDS011;11543;43.144;24.684;2022-11-09T02:11:02;37.58;;;23.88;;
22752;SDS011;11543;43.144;24.684;2022-11-09T02:13:32;40.30;;;22.88;;
22752;SDS011;11543;43.144;24.684;2022-11-09T02:15:59;34.88;;;22.60;;
22752;SDS011;11543;43.144;24.684;2022-11-09T02:18:26;32.67;;;22.10;;
22752;SDS011;11543;43.144;24.684;2022-11-09T02:20:52;35.28;;;23.85;;
22752;SDS011;11543;43.144;24.684;2022-11-09T02:23:20;42.38;;;25.55;;
22752;SDS011;11543;43.144;24.684;2022-11-09T02:25:50;40.67;;;25.73;;
22752;SDS011;11543;43.144;24.684;2022-11-09T02:28:20;42.90;;;25.23;;
22752;SDS011;11543;43.144;24.684;2022-11-09T02:30:48;40.15;;;24.90;;
22752;SDS011;11543;43.144;24.684;2022-11-09T02:33:16;39.97;;;24.48;;
22752;SDS011;11543;43.144;24.684;2022-11-09T02:35:41;39.78;;;25.15;;
22752;SDS011;11543;43.144;24.684;2022-11-09T02:38:11;36.08;;;23.92;;
22752;SDS011;11543;43.144;24.684;2022-11-09T02:40:38;41.53;;;24.65;;
22752;SDS011;11543;43.144;24.684;2022-11-09T02:43:06;38.10;;;24.08;;
22752;SDS011;11543;43.144;24.684;2022-11-09T02:45:33;36.47;;;24.05;;
22752;SDS011;11543;43.144;24.684;2022-11-09T02:47:58;40.33;;;23.95;;
22752;SDS011;11543;43.144;24.684;2022-11-09T02:50:24;37.78;;;24.67;;
22752;SDS011;11543;43.144;24.684;2022-11-09T02:52:50;38.03;;;25.63;;
22752;SDS011;11543;43.144;24.684;2022-11-09T02:55:15;39.15;;;25.23;;
22752;SDS011;11543;43.144;24.684;2022-11-09T02:57:41;40.22;;;25.42;;
22752;SDS011;11543;43.144;24.684;2022-11-09T03:00:07;40.78;;;25.55;;
22752;SDS011;11543;43.144;24.684;2022-11-09T03:02:33;39.80;;;25.33;;
22752;SDS011;11543;43.144;24.684;2022-11-09T03:04:59;39.72;;;24.98;;
22752;SDS011;11543;43.144;24.684;2022-11-09T03:07:25;39.88;;;25.13;;
22752;SDS011;11543;43.144;24.684;2022-11-09T03:09:50;37.53;;;24.20;;
22752;SDS011;11543;43.144;24.684;2022-11-09T03:12:18;37.25;;;24.45;;
22752;SDS011;11543;43.144;24.684;2022-11-09T03:14:59;38.25;;;23.73;;
22752;SDS011;11543;43.144;24.684;2022-11-09T03:17:27;39.88;;;23.25;;
22752;SDS011;11543;43.144;24.684;2022-11-09T03:19:53;34.13;;;23.75;;
22752;SDS011;11543;43.144;24.684;2022-11-09T03:22:19;38.17;;;22.67;;
22752;SDS011;11543;43.144;24.684;2022-11-09T03:24:45;37.63;;;22.95;;
22752;SDS011;11543;43.144;24.684;2022-11-09T03:27:11;35.22;;;23.40;;
22752;SDS011;11543;43.144;24.684;2022-11-09T03:29:36;36.40;;;23.02;;
22752;SDS011;11543;43.144;24.684;2022-11-09T03:32:02;38.00;;;22.90;;
22752;SDS011;11543;43.144;24.684;2022-11-09T03:34:28;35.47;;;22.38;;
22752;SDS011;11543;43.144;24.684;2022-11-09T03:36:53;35.80;;;23.75;;
22752;SDS011;11543;43.144;24.684;2022-11-09T03:39:19;40.53;;;23.77;;
22752;SDS011;11543;43.144;24.684;2022-11-09T03:41:44;38.78;;;23.58;;
22752;SDS011;11543;43.144;24.684;2022-11-09T03:44:09;38.47;;;23.83;;
22752;SDS011;11543;43.144;24.684;2022-11-09T03:46:35;37.35;;;23.58;;
22752;SDS011;11543;43.144;24.684;2022-11-09T03:49:00;37.92;;;23.35;;
22752;SDS011;11543;43.144;24.684;2022-11-09T03:51:26;37.47;;;23.52;;
22752;SDS011;11543;43.144;24.684;2022-11-09T03:53:51;43.63;;;24.27;;
22752;SDS011;11543;43.144;24.684;2022-11-09T03:56:17;36.28;;;23.15;;
22752;SDS011;11543;43.144;24.684;2022-11-09T03:58:43;34.58;;;22.70;;
22752;SDS011;11543;43.144;24.684;2022-11-09T04:01:08;37.72;;;23.00;;
22752;SDS011;11543;43.144;24.684;2022-11-09T04:03:35;39.75;;;23.15;;
22752;SDS011;11543;43.144;24.684;2022-11-09T04:06:00;38.15;;;22.67;;
22752;SDS011;11543;43.144;24.684;2022-11-09T04:08:26;34.97;;;23.20;;
22752;SDS011;11543;43.144;24.684;2022-11-09T04:10:51;35.72;;;22.73;;
22752;SDS011;11543;43.144;24.684;2022-11-09T04:13:17;35.17;;;23.83;;
22752;SDS011;11543;43.144;24.684;2022-11-09T04:15:42;39.67;;;24.33;;
22752;SDS011;11543;43.144;24.684;2022-11-09T04:18:10;41.17;;;25.05;;
22752;SDS011;11543;43.144;24.684;2022-11-09T04:20:37;38.83;;;24.85;;
22752;SDS011;11543;43.144;24.684;2022-11-09T04:23:03;37.58;;;24.60;;
22752;SDS011;11543;43.144;24.684;2022-11-09T04:25:30;37.28;;;24.08;;
22752;SDS011;11543;43.144;24.684;2022-11-09T04:27:58;37.63;;;23.65;;
22752;SDS011;11543;43.144;24.684;2022-11-09T04:30:24;36.45;;;23.52;;
22752;SDS011;11543;43.144;24.684;2022-11-09T04:32:53;37.17;;;24.45;;
22752;SDS011;11543;43.144;24.684;2022-11-09T04:35:20;39.85;;;24.10;;
22752;SDS011;11543;43.144;24.684;2022-11-09T04:37:52;38.35;;;22.83;;
22752;SDS011;11543;43.144;24.684;2022-11-09T04:40:22;35.17;;;23.00;;
22752;SDS011;11543;43.144;24.684;2022-11-09T04:42:48;37.00;;;22.98;;
22752;SDS011;11543;43.144;24.684;2022-11-09T04:45:14;35.50;;;22.77;;
22752;SDS011;11543;43.144;24.684;2022-11-09T04:47:39;35.22;;;22.77;;
22752;SDS011;11543;43.144;24.684;2022-11-09T04:50:05;35.53;;;22.67;;
22752;SDS011;11543;43.144;24.684;2022-11-09T04:52:31;41.55;;;23.88;;
22752;SDS011;11543;43.144;24.684;2022-11-09T04:54:56;38.72;;;22.83;;
22752;SDS011;11543;43.144;24.684;2022-11-09T04:57:22;37.50;;;23.00;;
22752;SDS011;11543;43.144;24.684;2022-11-09T04:59:47;32.75;;;20.98;;
22752;SDS011;11543;43.144;24.684;2022-11-09T05:02:13;33.83;;;20.70;;
22752;SDS011;11543;43.144;24.684;2022-11-09T05:04:38;34.83;;;20.25;;
22752;SDS011;11543;43.144;24.684;2022-11-09T05:07:03;33.45;;;20.83;;
22752;SDS011;11543;43.144;24.684;2022-11-09T05:09:29;29.33;;;19.92;;
22752;SDS011;11543;43.144;24.684;2022-11-09T05:11:54;33.40;;;20.30;;
22752;SDS011;11543;43.144;24.684;2022-11-09T05:14:20;32.25;;;20.42;;
22752;SDS011;11543;43.144;24.684;2022-11-09T05:16:45;31.92;;;20.52;;
22752;SDS011;11543;43.144;24.684;2022-11-09T05:19:10;31.80;;;20.25;;
22752;SDS011;11543;43.144;24.684;2022-11-09T05:21:37;31.15;;;19.98;;
22752;SDS011;11543;43.144;24.684;2022-11-09T05:24:03;30.30;;;20.55;;
22752;SDS011;11543;43.144;24.684;2022-11-09T05:26:30;36.05;;;20.67;;
22752;SDS011;11543;43.144;24.684;2022-11-09T05:28:57;36.03;;;22.63;;
22752;SDS011;11543;43.144;24.684;2022-11-09T05:31:24;34.22;;;21.45;;
22752;SDS011;11543;43.144;24.684;2022-11-09T05:33:51;33.50;;;21.23;;
22752;SDS011;11543;43.144;24.684;2022-11-09T05:36:17;31.88;;;20.67;;
22752;SDS011;11543;43.144;24.684;2022-11-09T05:38:43;34.78;;;21.63;;
22752;SDS011;11543;43.144;24.684;2022-11-09T05:41:09;33.00;;;21.38;;
22752;SDS011;11543;43.144;24.684;2022-11-09T05:43:35;36.28;;;21.55;;
22752;SDS011;11543;43.144;24.684;2022-11-09T05:46:00;38.67;;;22.17;;
22752;SDS011;11543;43.144;24.684;2022-11-09T05:48:26;34.63;;;21.17;;
22752;SDS011;11543;43.144;24.684;2022-11-09T05:50:51;35.83;;;22.27;;
22752;SDS011;11543;43.144;24.684;2022-11-09T05:53:17;37.35;;;23.63;;
22752;SDS011;11543;43.144;24.684;2022-11-09T05:55:43;34.75;;;23.48;;
22752;SDS011;11543;43.144;24.684;2022-11-09T05:58:09;38.53;;;24.20;;
22752;SDS011;11543;43.144;24.684;2022-11-09T06:00:34;36.88;;;23.30;;
22752;SDS011;11543;43.144;24.684;2022-11-09T06:03:04;39.60;;;24.05;;
22752;SDS011;11543;43.144;24.684;2022-11-09T06:05:35;38.92;;;22.85;;
22752;SDS011;11543;43.144;24.684;2022-11-09T06:10:30;37.97;;;23.48;;
22752;SDS011;11543;43.144;24.684;2022-11-09T06:12:55;31.90;;;22.58;;
22752;SDS011;11543;43.144;24.684;2022-11-09T06:15:21;34.38;;;22.70;;
22752;SDS011;11543;43.144;24.684;2022-11-09T06:17:53;35.53;;;22.40;;
22752;SDS011;11543;43.144;24.684;2022-11-09T06:20:21;36.45;;;22.77;;
22752;SDS011;11543;43.144;24.684;2022-11-09T06:22:52;38.92;;;22.83;;
22752;SDS011;11543;43.144;24.684;2022-11-09T06:25:22;39.92;;;23.60;;
22752;SDS011;11543;43.144;24.684;2022-11-09T06:27:48;37.17;;;23.48;;
22752;SDS011;11543;43.144;24.684;2022-11-09T06:30:15;38.25;;;24.05;;
22752;SDS011;11543;43.144;24.684;2022-11-09T06:32:40;41.72;;;25.08;;
22752;SDS011;11543;43.144;24.684;2022-11-09T06:35:06;39.63;;;25.15;;
22752;SDS011;11543;43.144;24.684;2022-11-09T06:37:32;41.75;;;25.05;;
22752;SDS011;11543;43.144;24.684;2022-11-09T06:39:58;43.72;;;26.23;;
22752;SDS011;11543;43.144;24.684;2022-11-09T06:42:23;41.40;;;26.10;;
22752;SDS011;11543;43.144;24.684;2022-11-09T06:44:49;42.97;;;26.42;;
22752;SDS011;11543;43.144;24.684;2022-11-09T06:47:14;49.22;;;28.13;;
22752;SDS011;11543;43.144;24.684;2022-11-09T06:49:40;45.13;;;27.60;;
22752;SDS011;11543;43.144;24.684;2022-11-09T06:52:05;41.35;;;26.08;;
22752;SDS011;11543;43.144;24.684;2022-11-09T06:54:31;40.17;;;25.60;;
22752;SDS011;11543;43.144;24.684;2022-11-09T06:56:57;47.40;;;26.25;;
22752;SDS011;11543;43.144;24.684;2022-11-09T06:59:23;48.65;;;26.63;;
22752;SDS011;11543;43.144;24.684;2022-11-09T07:01:48;45.08;;;25.30;;
22752;SDS011;11543;43.144;24.684;2022-11-09T07:04:13;40.05;;;25.90;;
22752;SDS011;11543;43.144;24.684;2022-11-09T07:06:39;44.20;;;25.23;;
22752;SDS011;11543;43.144;24.684;2022-11-09T07:09:06;49.45;;;26.08;;
22752;SDS011;11543;43.144;24.684;2022-11-09T07:11:32;42.25;;;26.27;;
22752;SDS011;11543;43.144;24.684;2022-11-09T07:13:57;47.75;;;27.63;;
22752;SDS011;11543;43.144;24.684;2022-11-09T07:16:23;42.58;;;26.65;;
22752;SDS011;11543;43.144;24.684;2022-11-09T07:18:49;42.58;;;26.63;;
22752;SDS011;11543;43.144;24.684;2022-11-09T07:21:14;42.92;;;26.23;;
22752;SDS011;11543;43.144;24.684;2022-11-09T07:23:41;43.75;;;27.10;;
22752;SDS011;11543;43.144;24.684;2022-11-09T07:26:06;45.55;;;26.50;;
22752;SDS011;11543;43.144;24.684;2022-11-09T07:28:32;41.22;;;26.30;;
22752;SDS011;11543;43.144;24.684;2022-11-09T07:30:58;40.35;;;25.40;;
22752;SDS011;11543;43.144;24.684;2022-11-09T07:33:24;39.45;;;25.50;;
22752;SDS011;11543;43.144;24.684;2022-11-09T07:35:50;38.83;;;24.40;;
22752;SDS011;11543;43.144;24.684;2022-11-09T07:38:16;36.17;;;23.33;;
22752;SDS011;11543;43.144;24.684;2022-11-09T07:40:43;35.53;;;23.35;;
22752;SDS011;11543;43.144;24.684;2022-11-09T07:43:09;37.05;;;23.77;;
22752;SDS011;11543;43.144;24.684;2022-11-09T07:45:36;40.28;;;23.20;;
22752;SDS011;11543;43.144;24.684;2022-11-09T07:48:06;37.67;;;23.00;;
22752;SDS011;11543;43.144;24.684;2022-11-09T07:50:33;38.17;;;24.13;;
22752;SDS011;11543;43.144;24.684;2022-11-09T07:53:00;38.40;;;23.75;;
22752;SDS011;11543;43.144;24.684;2022-11-09T07:55:26;35.50;;;23.33;;
22752;SDS011;11543;43.144;24.684;2022-11-09T07:58:03;34.95;;;21.55;;
22752;SDS011;11543;43.144;24.684;2022-11-09T08:00:31;38.28;;;23.67;;
22752;SDS011;11543;43.144;24.684;2022-11-09T08:02:58;40.60;;;22.52;;
22752;SDS011;11543;43.144;24.684;2022-11-09T08:05:23;37.53;;;22.65;;
22752;SDS011;11543;43.144;24.684;2022-11-09T08:07:55;34.40;;;22.27;;
22752;SDS011;11543;43.144;24.684;2022-11-09T08:10:23;34.65;;;21.95;;
22752;SDS011;11543;43.144;24.684;2022-11-09T08:12:53;38.55;;;22.02;;
22752;SDS011;11543;43.144;24.684;2022-11-09T08:15:24;37.55;;;23.55;;
22752;SDS011;11543;43.144;24.684;2022-11-09T08:17:50;32.45;;;21.63;;
22752;SDS011;11543;43.144;24.684;2022-11-09T08:20:15;34.60;;;20.88;;
22752;SDS011;11543;43.144;24.684;2022-11-09T08:22:42;35.47;;;22.38;;
22752;SDS011;11543;43.144;24.684;2022-11-09T08:25:09;35.00;;;23.15;;
22752;SDS011;11543;43.144;24.684;2022-11-09T08:27:35;40.58;;;23.25;;
22752;SDS011;11543;43.144;24.684;2022-11-09T08:30:09;40.33;;;22.77;;
22752;SDS011;11543;43.144;24.684;2022-11-09T08:32:37;42.55;;;21.75;;
22752;SDS011;11543;43.144;24.684;2022-11-09T08:35:03;34.10;;;20.17;;
22752;SDS011;11543;43.144;24.684;2022-11-09T08:37:29;35.53;;;20.77;;
22752;SDS011;11543;43.144;24.684;2022-11-09T08:39:58;33.40;;;21.13;;
22752;SDS011;11543;43.144;24.684;2022-11-09T08:42:23;34.17;;;21.80;;
22752;SDS011;11543;43.144;24.684;2022-11-09T08:44:48;33.38;;;22.08;;
22752;SDS011;11543;43.144;24.684;2022-11-09T08:47:14;38.33;;;22.10;;
22752;SDS011;11543;43.144;24.684;2022-11-09T08:49:39;41.78;;;22.42;;
22752;SDS011;11543;43.144;24.684;2022-11-09T08:52:07;36.72;;;23.13;;
22752;SDS011;11543;43.144;24.684;2022-11-09T08:54:34;39.53;;;22.70;;
22752;SDS011;11543;43.144;24.684;2022-11-09T08:57:00;39.38;;;22.95;;
22752;SDS011;11543;43.144;24.684;2022-11-09T08:59:26;37.33;;;21.70;;
22752;SDS011;11543;43.144;24.684;2022-11-09T09:01:51;35.90;;;22.00;;
22752;SDS011;11543;43.144;24.684;2022-11-09T09:04:18;34.47;;;21.27;;
22752;SDS011;11543;43.144;24.684;2022-11-09T09:06:43;36.65;;;21.92;;
22752;SDS011;11543;43.144;24.684;2022-11-09T09:09:09;38.22;;;21.15;;
22752;SDS011;11543;43.144;24.684;2022-11-09T09:11:34;32.53;;;20.85;;
22752;SDS011;11543;43.144;24.684;2022-11-09T09:13:59;37.58;;;22.88;;
22752;SDS011;11543;43.144;24.684;2022-11-09T09:16:25;33.33;;;21.02;;
22752;SDS011;11543;43.144;24.684;2022-11-09T09:18:50;33.95;;;20.30;;
22752;SDS011;11543;43.144;24.684;2022-11-09T09:21:16;36.97;;;21.15;;
22752;SDS011;11543;43.144;24.684;2022-11-09T09:23:41;33.42;;;20.52;;
22752;SDS011;11543;43.144;24.684;2022-11-09T09:26:07;33.95;;;20.48;;
22752;SDS011;11543;43.144;24.684;2022-11-09T09:28:32;34.67;;;20.50;;
22752;SDS011;11543;43.144;24.684;2022-11-09T09:30:59;36.17;;;21.38;;
22752;SDS011;11543;43.144;24.684;2022-11-09T09:33:25;34.63;;;20.48;;
22752;SDS011;11543;43.144;24.684;2022-11-09T09:35:53;34.72;;;20.02;;
22752;SDS011;11543;43.144;24.684;2022-11-09T09:38:20;34.22;;;20.27;;
22752;SDS011;11543;43.144;24.684;2022-11-09T09:40:51;33.42;;;18.70;;
22752;SDS011;11543;43.144;24.684;2022-11-09T09:43:30;31.90;;;18.95;;
22752;SDS011;11543;43.144;24.684;2022-11-09T09:46:24;33.78;;;18.58;;
22752;SDS011;11543;43.144;24.684;2022-11-09T09:49:01;32.65;;;19.30;;
22752;SDS011;11543;43.144;24.684;2022-11-09T09:51:37;34.40;;;19.80;;
22752;SDS011;11543;43.144;24.684;2022-11-09T09:54:22;33.38;;;19.35;;
22752;SDS011;11543;43.144;24.684;2022-11-09T09:56:55;33.40;;;18.80;;
22752;SDS011;11543;43.144;24.684;2022-11-09T10:02:15;32.58;;;17.70;;
22752;SDS011;11543;43.144;24.684;2022-11-09T10:04:42;27.92;;;17.17;;
22752;SDS011;11543;43.144;24.684;2022-11-09T10:26:19;26.05;;;16.33;;
22752;SDS011;11543;43.144;24.684;2022-11-09T10:28:55;29.35;;;18.40;;
22752;SDS011;11543;43.144;24.684;2022-11-09T10:31:25;28.60;;;18.13;;
22752;SDS011;11543;43.144;24.684;2022-11-09T10:33:59;29.88;;;18.15;;
22752;SDS011;11543;43.144;24.684;2022-11-09T10:36:36;27.70;;;17.27;;
22752;SDS011;11543;43.144;24.684;2022-11-09T10:39:12;28.63;;;16.70;;
22752;SDS011;11543;43.144;24.684;2022-11-09T10:41:40;29.90;;;17.73;;
22752;SDS011;11543;43.144;24.684;2022-11-09T10:44:14;25.92;;;17.40;;
22752;SDS011;11543;43.144;24.684;2022-11-09T10:47:01;27.70;;;17.40;;
22752;SDS011;11543;43.144;24.684;2022-11-09T10:49:29;26.17;;;17.00;;
22752;SDS011;11543;43.144;24.684;2022-11-09T10:51:55;26.80;;;16.88;;
22752;SDS011;11543;43.144;24.684;2022-11-09T10:54:22;26.08;;;16.45;;
22752;SDS011;11543;43.144;24.684;2022-11-09T10:57:13;25.40;;;16.17;;
22752;SDS011;11543;43.144;24.684;2022-11-09T11:07:31;26.58;;;15.55;;
22752;SDS011;11543;43.144;24.684;2022-11-09T11:12:41;23.95;;;14.60;;
22752;SDS011;11543;43.144;24.684;2022-11-09T11:17:59;23.80;;;14.35;;
22752;SDS011;11543;43.144;24.684;2022-11-09T11:20:27;25.23;;;14.65;;
22752;SDS011;11543;43.144;24.684;2022-11-09T11:31:12;23.23;;;14.07;;
22752;SDS011;11543;43.144;24.684;2022-11-09T11:33:39;20.38;;;13.55;;
22752;SDS011;11543;43.144;24.684;2022-11-09T11:47:09;18.80;;;11.57;;
22752;SDS011;11543;43.144;24.684;2022-11-09T11:51:02;21.92;;;12.55;;
22752;SDS011;11543;43.144;24.684;2022-11-09T11:56:11;21.60;;;11.40;;
22752;SDS011;11543;43.144;24.684;2022-11-09T12:01:37;17.77;;;11.95;;
22752;SDS011;11543;43.144;24.684;2022-11-09T12:09:56;20.13;;;11.57;;
22752;SDS011;11543;43.144;24.684;2022-11-09T12:37:20;27.58;;;18.25;;
22752;SDS011;11543;43.144;24.684;2022-11-09T12:39:52;20.85;;;14.18;;
22752;SDS011;11543;43.144;24.684;2022-11-09T12:42:52;18.75;;;11.80;;
22752;SDS011;11543;43.144;24.684;2022-11-09T12:48:03;16.73;;;11.40;;
22752;SDS011;11543;43.144;24.684;2022-11-09T12:50:37;18.48;;;11.10;;
22752;SDS011;11543;43.144;24.684;2022-11-09T12:53:03;15.88;;;11.10;;
22752;SDS011;11543;43.144;24.684;2022-11-09T12:55:41;18.23;;;11.00;;
22752;SDS011;11543;43.144;24.684;2022-11-09T13:00:45;18.63;;;10.63;;
22752;SDS011;11543;43.144;24.684;2022-11-09T13:03:18;15.57;;;10.48;;
22752;SDS011;11543;43.144;24.684;2022-11-09T13:05:48;18.13;;;10.43;;
22752;SDS011;11543;43.144;24.684;2022-11-09T13:15:02;17.42;;;10.73;;
22752;SDS011;11543;43.144;24.684;2022-11-09T13:17:01;17.60;;;10.90;;
22752;SDS011;11543;43.144;24.684;2022-11-09T13:19:54;16.13;;;10.45;;
22752;SDS011;11543;43.144;24.684;2022-11-09T13:27:35;24.33;;;11.25;;
22752;SDS011;11543;43.144;24.684;2022-11-09T13:30:12;18.58;;;10.18;;
22752;SDS011;11543;43.144;24.684;2022-11-09T13:33:14;18.30;;;10.93;;
22752;SDS011;11543;43.144;24.684;2022-11-09T13:38:11;18.80;;;10.60;;
22752;SDS011;11543;43.144;24.684;2022-11-09T13:45:55;15.70;;;10.57;;
22752;SDS011;11543;43.144;24.684;2022-11-09T13:51:10;20.60;;;11.77;;
22752;SDS011;11543;43.144;24.684;2022-11-09T13:56:14;21.98;;;10.98;;
22752;SDS011;11543;43.144;24.684;2022-11-09T13:59:16;18.02;;;10.32;;
22752;SDS011;11543;43.144;24.684;2022-11-09T14:01:50;18.42;;;11.10;;
22752;SDS011;11543;43.144;24.684;2022-11-09T14:04:22;14.75;;;9.85;;
22752;SDS011;11543;43.144;24.684;2022-11-09T14:07:03;16.98;;;10.30;;
22752;SDS011;11543;43.144;24.684;2022-11-09T14:20:52;15.77;;;10.05;;
22752;SDS011;11543;43.144;24.684;2022-11-09T14:23:20;20.38;;;10.65;;
22752;SDS011;11543;43.144;24.684;2022-11-09T14:25:48;15.90;;;10.50;;
22752;SDS011;11543;43.144;24.684;2022-11-09T14:30:53;16.80;;;10.60;;
22752;SDS011;11543;43.144;24.684;2022-11-09T14:33:20;17.08;;;10.02;;
22752;SDS011;11543;43.144;24.684;2022-11-09T14:35:57;19.52;;;10.45;;
22752;SDS011;11543;43.144;24.684;2022-11-09T14:38:34;17.83;;;10.55;;
22752;SDS011;11543;43.144;24.684;2022-11-09T14:41:27;16.17;;;10.57;;
22752;SDS011;11543;43.144;24.684;2022-11-09T14:43:55;21.88;;;10.75;;
22752;SDS011;11543;43.144;24.684;2022-11-09T14:46:26;19.27;;;10.68;;
22752;SDS011;11543;43.144;24.684;2022-11-09T14:48:57;21.33;;;10.75;;
22752;SDS011;11543;43.144;24.684;2022-11-09T14:51:32;20.63;;;11.18;;
22752;SDS011;11543;43.144;24.684;2022-11-09T14:54:02;22.50;;;12.13;;
22752;SDS011;11543;43.144;24.684;2022-11-09T14:56:31;25.65;;;14.05;;
22752;SDS011;11543;43.144;24.684;2022-11-09T14:58:58;21.95;;;12.30;;
22752;SDS011;11543;43.144;24.684;2022-11-09T15:01:26;20.25;;;11.93;;
22752;SDS011;11543;43.144;24.684;2022-11-09T15:06:43;21.38;;;11.88;;
22752;SDS011;11543;43.144;24.684;2022-11-09T15:09:42;23.75;;;12.18;;
22752;SDS011;11543;43.144;24.684;2022-11-09T15:12:15;26.08;;;11.52;;
22752;SDS011;11543;43.144;24.684;2022-11-09T15:14:47;23.25;;;13.38;;
22752;SDS011;11543;43.144;24.684;2022-11-09T15:17:15;33.42;;;18.02;;
22752;SDS011;11543;43.144;24.684;2022-11-09T15:28:41;50.10;;;29.33;;
22752;SDS011;11543;43.144;24.684;2022-11-09T15:35:53;29.10;;;17.30;;
22752;SDS011;11543;43.144;24.684;2022-11-09T15:41:25;25.35;;;15.27;;
22752;SDS011;11543;43.144;24.684;2022-11-09T15:43:51;23.48;;;15.68;;
22752;SDS011;11543;43.144;24.684;2022-11-09T15:46:18;23.67;;;15.75;;
22752;SDS011;11543;43.144;24.684;2022-11-09T15:48:47;29.00;;;15.35;;
22752;SDS011;11543;43.144;24.684;2022-11-09T15:51:13;31.05;;;14.93;;
22752;SDS011;11543;43.144;24.684;2022-11-09T15:53:39;28.45;;;14.73;;
22752;SDS011;11543;43.144;24.684;2022-11-09T15:56:05;29.67;;;15.15;;
22752;SDS011;11543;43.144;24.684;2022-11-09T15:58:31;28.90;;;14.75;;
22752;SDS011;11543;43.144;24.684;2022-11-09T16:00:56;23.75;;;14.10;;
22752;SDS011;11543;43.144;24.684;2022-11-09T16:03:21;24.90;;;14.38;;
22752;SDS011;11543;43.144;24.684;2022-11-09T16:05:47;28.13;;;14.82;;
22752;SDS011;11543;43.144;24.684;2022-11-09T16:08:12;24.27;;;15.65;;
22752;SDS011;11543;43.144;24.684;2022-11-09T16:10:40;29.38;;;15.55;;
22752;SDS011;11543;43.144;24.684;2022-11-09T16:13:06;29.77;;;15.05;;
22752;SDS011;11543;43.144;24.684;2022-11-09T16:15:33;23.25;;;13.75;;
22752;SDS011;11543;43.144;24.684;2022-11-09T16:18:00;22.90;;;14.57;;
22752;SDS011;11543;43.144;24.684;2022-11-09T16:20:26;23.73;;;14.20;;
22752;SDS011;11543;43.144;24.684;2022-11-09T16:22:51;21.13;;;14.25;;
22752;SDS011;11543;43.144;24.684;2022-11-09T16:25:17;21.67;;;14.70;;
22752;SDS011;11543;43.144;24.684;2022-11-09T16:27:44;25.00;;;14.98;;
22752;SDS011;11543;43.144;24.684;2022-11-09T16:30:10;23.92;;;15.23;;
22752;SDS011;11543;43.144;24.684;2022-11-09T16:32:36;23.67;;;15.15;;
22752;SDS011;11543;43.144;24.684;2022-11-09T16:35:01;24.45;;;14.63;;
22752;SDS011;11543;43.144;24.684;2022-11-09T16:37:28;27.55;;;15.00;;
22752;SDS011;11543;43.144;24.684;2022-11-09T16:39:59;26.23;;;15.02;;
22752;SDS011;11543;43.144;24.684;2022-11-09T16:42:31;24.63;;;15.60;;
22752;SDS011;11543;43.144;24.684;2022-11-09T16:44:58;24.52;;;14.55;;
22752;SDS011;11543;43.144;24.684;2022-11-09T16:47:29;25.40;;;14.95;;
22752;SDS011;11543;43.144;24.684;2022-11-09T16:49:54;32.83;;;19.83;;
22752;SDS011;11543;43.144;24.684;2022-11-09T16:52:20;31.63;;;19.08;;